sensor_id;sensor_type;location;lat;lon;timestamp;temperature;humidity
41344;DHT22;27089;50.022;7.604;2023-01-19T00:00:52;-0.90;99.90
41344;DHT22;27089;50.022;7.604;2023-01-19T00:03:19;-1.00;99.90
41344;DHT22;27089;50.022;7.604;2023-01-19T00:05:46;-0.90;99.90
41344;DHT22;27089;50.022;7.604;2023-01-19T00:08:13;-0.80;99.90
41344;DHT22;27089;50.022;7.604;2023-01-19T00:10:41;-0.80;99.90
41344;DHT22;27089;50.022;7.604;2023-01-19T00:13:08;-0.70;99.90
41344;DHT22;27089;50.022;7.604;2023-01-19T00:15:36;-0.60;99.90
41344;DHT22;27089;50.022;7.604;2023-01-19T00:18:03;-0.50;99.90
41344;DHT22;27089;50.022;7.604;2023-01-19T00:20:31;-0.40;99.90
41344;DHT22;27089;50.022;7.604;2023-01-19T00:23:00;-0.20;99.90
41344;DHT22;27089;50.022;7.604;2023-01-19T00:25:27;-0.20;99.90
41344;DHT22;27089;50.022;7.604;2023-01-19T00:27:54;0.00;99.90
41344;DHT22;27089;50.022;7.604;2023-01-19T00:30:21;0.00;99.90
41344;DHT22;27089;50.022;7.604;2023-01-19T00:32:49;0.10;99.90
41344;DHT22;27089;50.022;7.604;2023-01-19T00:35:16;0.20;99.90
41344;DHT22;27089;50.022;7.604;2023-01-19T00:37:44;0.30;99.90
41344;DHT22;27089;50.022;7.604;2023-01-19T00:40:11;0.30;99.90
41344;DHT22;27089;50.022;7.604;2023-01-19T00:42:39;0.40;99.90
41344;DHT22;27089;50.022;7.604;2023-01-19T00:45:07;0.40;99.90
41344;DHT22;27089;50.022;7.604;2023-01-19T00:47:34;0.50;99.90
41344;DHT22;27089;50.022;7.604;2023-01-19T00:50:02;0.50;99.90
41344;DHT22;27089;50.022;7.604;2023-01-19T00:52:30;0.60;99.90
41344;DHT22;27089;50.022;7.604;2023-01-19T00:54:57;0.60;99.90
41344;DHT22;27089;50.022;7.604;2023-01-19T00:57:24;0.60;99.90
41344;DHT22;27089;50.022;7.604;2023-01-19T00:59:51;0.70;99.90
41344;DHT22;27089;50.022;7.604;2023-01-19T01:02:18;0.70;99.90
41344;DHT22;27089;50.022;7.604;2023-01-19T01:04:45;0.80;99.90
41344;DHT22;27089;50.022;7.604;2023-01-19T01:07:13;0.80;99.90
41344;DHT22;27089;50.022;7.604;2023-01-19T01:09:40;0.80;99.90
41344;DHT22;27089;50.022;7.604;2023-01-19T01:12:07;0.80;99.90
41344;DHT22;27089;50.022;7.604;2023-01-19T01:14:34;0.80;99.90
41344;DHT22;27089;50.022;7.604;2023-01-19T01:17:01;0.80;99.90
41344;DHT22;27089;50.022;7.604;2023-01-19T01:19:28;0.80;99.90
41344;DHT22;27089;50.022;7.604;2023-01-19T01:21:55;0.80;99.90
41344;DHT22;27089;50.022;7.604;2023-01-19T01:24:23;0.90;99.90
41344;DHT22;27089;50.022;7.604;2023-01-19T01:26:50;0.80;99.90
41344;DHT22;27089;50.022;7.604;2023-01-19T01:29:17;0.90;99.90
41344;DHT22;27089;50.022;7.604;2023-01-19T01:31:44;0.90;99.90
41344;DHT22;27089;50.022;7.604;2023-01-19T01:34:11;0.90;99.90
41344;DHT22;27089;50.022;7.604;2023-01-19T01:36:38;0.90;99.90
41344;DHT22;27089;50.022;7.604;2023-01-19T01:39:05;1.00;99.90
41344;DHT22;27089;50.022;7.604;2023-01-19T01:41:33;1.00;99.90
41344;DHT22;27089;50.022;7.604;2023-01-19T01:44:00;1.00;99.90
41344;DHT22;27089;50.022;7.604;2023-01-19T01:46:31;1.10;99.90
41344;DHT22;27089;50.022;7.604;2023-01-19T01:49:03;1.10;99.90
41344;DHT22;27089;50.022;7.604;2023-01-19T01:51:35;1.10;99.90
41344;DHT22;27089;50.022;7.604;2023-01-19T01:54:08;1.20;99.90
41344;DHT22;27089;50.022;7.604;2023-01-19T01:56:39;1.20;99.90
41344;DHT22;27089;50.022;7.604;2023-01-19T01:59:13;1.30;99.90
41344;DHT22;27089;50.022;7.604;2023-01-19T02:01:51;1.30;99.90
41344;DHT22;27089;50.022;7.604;2023-01-19T02:04:37;1.30;99.90
41344;DHT22;27089;50.022;7.604;2023-01-19T02:07:05;1.30;99.90
41344;DHT22;27089;50.022;7.604;2023-01-19T02:09:50;1.40;99.90
41344;DHT22;27089;50.022;7.604;2023-01-19T02:12:36;1.40;99.90
41344;DHT22;27089;50.022;7.604;2023-01-19T02:15:20;1.30;99.90
41344;DHT22;27089;50.022;7.604;2023-01-19T02:17:47;1.30;99.90
41344;DHT22;27089;50.022;7.604;2023-01-19T02:20:16;1.40;99.90
41344;DHT22;27089;50.022;7.604;2023-01-19T02:22:47;1.40;99.90
41344;DHT22;27089;50.022;7.604;2023-01-19T02:25:17;1.40;99.90
41344;DHT22;27089;50.022;7.604;2023-01-19T02:27:45;1.40;99.90
41344;DHT22;27089;50.022;7.604;2023-01-19T02:30:12;1.40;99.90
41344;DHT22;27089;50.022;7.604;2023-01-19T02:32:41;1.40;99.90
41344;DHT22;27089;50.022;7.604;2023-01-19T02:35:09;1.40;99.90
41344;DHT22;27089;50.022;7.604;2023-01-19T02:37:36;1.30;99.90
41344;DHT22;27089;50.022;7.604;2023-01-19T02:40:08;1.30;99.90
41344;DHT22;27089;50.022;7.604;2023-01-19T02:42:40;1.30;99.90
41344;DHT22;27089;50.022;7.604;2023-01-19T02:45:10;1.40;99.90
41344;DHT22;27089;50.022;7.604;2023-01-19T02:47:39;1.40;99.90
41344;DHT22;27089;50.022;7.604;2023-01-19T02:50:32;1.50;99.90
41344;DHT22;27089;50.022;7.604;2023-01-19T02:53:11;1.50;99.90
41344;DHT22;27089;50.022;7.604;2023-01-19T02:55:41;1.50;99.90
41344;DHT22;27089;50.022;7.604;2023-01-19T02:58:15;1.50;99.90
41344;DHT22;27089;50.022;7.604;2023-01-19T03:00:50;1.50;99.90
41344;DHT22;27089;50.022;7.604;2023-01-19T03:03:31;1.50;99.90
41344;DHT22;27089;50.022;7.604;2023-01-19T03:06:04;1.50;99.90
41344;DHT22;27089;50.022;7.604;2023-01-19T03:08:42;1.50;99.90
41344;DHT22;27089;50.022;7.604;2023-01-19T03:11:10;1.60;99.90
41344;DHT22;27089;50.022;7.604;2023-01-19T03:13:44;1.60;99.90
41344;DHT22;27089;50.022;7.604;2023-01-19T03:16:17;1.60;99.90
41344;DHT22;27089;50.022;7.604;2023-01-19T03:18:50;1.60;99.90
41344;DHT22;27089;50.022;7.604;2023-01-19T03:21:18;1.60;99.90
41344;DHT22;27089;50.022;7.604;2023-01-19T03:23:47;1.60;99.90
41344;DHT22;27089;50.022;7.604;2023-01-19T03:26:18;1.60;99.90
41344;DHT22;27089;50.022;7.604;2023-01-19T03:28:50;1.60;99.90
41344;DHT22;27089;50.022;7.604;2023-01-19T03:31:19;1.60;99.90
41344;DHT22;27089;50.022;7.604;2023-01-19T03:33:50;1.60;99.90
41344;DHT22;27089;50.022;7.604;2023-01-19T03:36:20;1.60;99.90
41344;DHT22;27089;50.022;7.604;2023-01-19T03:38:49;1.60;99.90
41344;DHT22;27089;50.022;7.604;2023-01-19T03:41:18;1.60;99.90
41344;DHT22;27089;50.022;7.604;2023-01-19T03:43:48;1.50;99.90
41344;DHT22;27089;50.022;7.604;2023-01-19T03:46:18;1.50;99.90
41344;DHT22;27089;50.022;7.604;2023-01-19T03:48:45;1.50;99.90
41344;DHT22;27089;50.022;7.604;2023-01-19T03:51:13;1.50;99.90
41344;DHT22;27089;50.022;7.604;2023-01-19T03:53:41;1.50;99.90
41344;DHT22;27089;50.022;7.604;2023-01-19T03:56:15;1.50;99.90
41344;DHT22;27089;50.022;7.604;2023-01-19T03:58:42;1.50;99.90
41344;DHT22;27089;50.022;7.604;2023-01-19T04:01:11;1.50;99.90
41344;DHT22;27089;50.022;7.604;2023-01-19T04:03:38;1.50;99.90
41344;DHT22;27089;50.022;7.604;2023-01-19T04:06:05;1.40;99.90
41344;DHT22;27089;50.022;7.604;2023-01-19T04:08:33;1.50;99.90
41344;DHT22;27089;50.022;7.604;2023-01-19T04:11:00;1.40;99.90
41344;DHT22;27089;50.022;7.604;2023-01-19T04:13:27;1.40;99.90
41344;DHT22;27089;50.022;7.604;2023-01-19T04:15:54;1.40;99.90
41344;DHT22;27089;50.022;7.604;2023-01-19T04:18:25;1.30;99.90
41344;DHT22;27089;50.022;7.604;2023-01-19T04:20:52;1.40;99.90
41344;DHT22;27089;50.022;7.604;2023-01-19T04:23:20;1.30;99.90
41344;DHT22;27089;50.022;7.604;2023-01-19T04:25:47;1.30;99.90
41344;DHT22;27089;50.022;7.604;2023-01-19T04:28:14;1.30;99.90
41344;DHT22;27089;50.022;7.604;2023-01-19T04:30:41;1.30;99.90
41344;DHT22;27089;50.022;7.604;2023-01-19T04:33:08;1.30;99.90
41344;DHT22;27089;50.022;7.604;2023-01-19T04:35:36;1.30;99.90
41344;DHT22;27089;50.022;7.604;2023-01-19T04:38:03;1.20;99.90
41344;DHT22;27089;50.022;7.604;2023-01-19T04:40:30;1.30;99.90
41344;DHT22;27089;50.022;7.604;2023-01-19T04:42:57;1.20;99.90
41344;DHT22;27089;50.022;7.604;2023-01-19T04:45:24;1.30;99.90
41344;DHT22;27089;50.022;7.604;2023-01-19T04:47:51;1.30;99.90
41344;DHT22;27089;50.022;7.604;2023-01-19T04:50:18;1.30;99.90
41344;DHT22;27089;50.022;7.604;2023-01-19T04:52:46;1.30;99.90
41344;DHT22;27089;50.022;7.604;2023-01-19T04:55:14;1.40;99.90
41344;DHT22;27089;50.022;7.604;2023-01-19T04:57:41;1.30;99.90
41344;DHT22;27089;50.022;7.604;2023-01-19T05:00:09;1.40;99.90
41344;DHT22;27089;50.022;7.604;2023-01-19T05:02:36;1.40;99.90
41344;DHT22;27089;50.022;7.604;2023-01-19T05:05:04;1.40;99.90
41344;DHT22;27089;50.022;7.604;2023-01-19T05:07:31;1.40;99.90
41344;DHT22;27089;50.022;7.604;2023-01-19T05:09:59;1.40;99.90
41344;DHT22;27089;50.022;7.604;2023-01-19T05:12:26;1.40;99.90
41344;DHT22;27089;50.022;7.604;2023-01-19T05:14:53;1.30;99.90
41344;DHT22;27089;50.022;7.604;2023-01-19T05:17:20;1.30;99.90
41344;DHT22;27089;50.022;7.604;2023-01-19T05:19:47;1.30;99.90
41344;DHT22;27089;50.022;7.604;2023-01-19T05:22:14;1.40;99.90
41344;DHT22;27089;50.022;7.604;2023-01-19T05:24:41;1.40;99.90
41344;DHT22;27089;50.022;7.604;2023-01-19T05:27:10;1.40;99.90
41344;DHT22;27089;50.022;7.604;2023-01-19T05:29:37;1.50;99.90
41344;DHT22;27089;50.022;7.604;2023-01-19T05:32:04;1.50;99.90
41344;DHT22;27089;50.022;7.604;2023-01-19T05:34:31;1.50;99.90
41344;DHT22;27089;50.022;7.604;2023-01-19T05:36:58;1.50;99.90
41344;DHT22;27089;50.022;7.604;2023-01-19T05:39:25;1.50;99.90
41344;DHT22;27089;50.022;7.604;2023-01-19T05:41:53;1.60;99.90
41344;DHT22;27089;50.022;7.604;2023-01-19T05:44:21;1.50;99.90
41344;DHT22;27089;50.022;7.604;2023-01-19T05:46:48;1.50;99.90
41344;DHT22;27089;50.022;7.604;2023-01-19T05:49:15;1.50;99.90
41344;DHT22;27089;50.022;7.604;2023-01-19T05:51:42;1.50;99.90
41344;DHT22;27089;50.022;7.604;2023-01-19T05:54:12;1.50;99.90
41344;DHT22;27089;50.022;7.604;2023-01-19T05:56:40;1.50;99.90
41344;DHT22;27089;50.022;7.604;2023-01-19T05:59:07;1.50;99.90
41344;DHT22;27089;50.022;7.604;2023-01-19T06:01:35;1.50;99.90
41344;DHT22;27089;50.022;7.604;2023-01-19T06:04:03;1.50;99.90
41344;DHT22;27089;50.022;7.604;2023-01-19T06:06:30;1.50;99.90
41344;DHT22;27089;50.022;7.604;2023-01-19T06:08:57;1.60;99.90
41344;DHT22;27089;50.022;7.604;2023-01-19T06:11:24;1.50;99.90
41344;DHT22;27089;50.022;7.604;2023-01-19T06:13:51;1.60;99.90
41344;DHT22;27089;50.022;7.604;2023-01-19T06:16:18;1.60;99.90
41344;DHT22;27089;50.022;7.604;2023-01-19T06:18:47;1.60;99.90
41344;DHT22;27089;50.022;7.604;2023-01-19T06:21:14;1.70;99.90
41344;DHT22;27089;50.022;7.604;2023-01-19T06:23:41;1.70;99.90
41344;DHT22;27089;50.022;7.604;2023-01-19T06:26:07;1.70;99.90
41344;DHT22;27089;50.022;7.604;2023-01-19T06:28:34;1.80;99.90
41344;DHT22;27089;50.022;7.604;2023-01-19T06:31:01;1.80;99.90
41344;DHT22;27089;50.022;7.604;2023-01-19T06:33:29;1.80;99.90
41344;DHT22;27089;50.022;7.604;2023-01-19T06:35:58;1.70;99.90
41344;DHT22;27089;50.022;7.604;2023-01-19T06:38:25;1.70;99.90
41344;DHT22;27089;50.022;7.604;2023-01-19T06:40:54;1.70;99.90
41344;DHT22;27089;50.022;7.604;2023-01-19T06:43:23;1.70;99.90
41344;DHT22;27089;50.022;7.604;2023-01-19T06:45:51;1.70;99.90
41344;DHT22;27089;50.022;7.604;2023-01-19T06:48:18;1.70;99.90
41344;DHT22;27089;50.022;7.604;2023-01-19T06:50:45;1.70;99.90
41344;DHT22;27089;50.022;7.604;2023-01-19T06:53:14;1.70;99.90
41344;DHT22;27089;50.022;7.604;2023-01-19T06:55:42;1.70;99.90
41344;DHT22;27089;50.022;7.604;2023-01-19T06:58:10;1.60;99.90
41344;DHT22;27089;50.022;7.604;2023-01-19T07:00:37;1.70;99.90
41344;DHT22;27089;50.022;7.604;2023-01-19T07:03:05;1.70;99.90
41344;DHT22;27089;50.022;7.604;2023-01-19T07:05:33;1.70;99.90
41344;DHT22;27089;50.022;7.604;2023-01-19T07:08:00;1.70;99.90
41344;DHT22;27089;50.022;7.604;2023-01-19T07:10:29;1.70;99.90
41344;DHT22;27089;50.022;7.604;2023-01-19T07:12:56;1.70;99.90
41344;DHT22;27089;50.022;7.604;2023-01-19T07:15:23;1.60;99.90
41344;DHT22;27089;50.022;7.604;2023-01-19T07:17:50;1.50;99.90
41344;DHT22;27089;50.022;7.604;2023-01-19T07:20:17;1.40;99.90
41344;DHT22;27089;50.022;7.604;2023-01-19T07:22:44;1.30;99.90
41344;DHT22;27089;50.022;7.604;2023-01-19T07:25:12;1.30;99.90
41344;DHT22;27089;50.022;7.604;2023-01-19T07:27:41;1.20;99.90
41344;DHT22;27089;50.022;7.604;2023-01-19T07:30:10;1.20;99.90
41344;DHT22;27089;50.022;7.604;2023-01-19T07:32:37;1.10;99.90
41344;DHT22;27089;50.022;7.604;2023-01-19T07:35:04;1.10;99.90
41344;DHT22;27089;50.022;7.604;2023-01-19T07:37:32;1.00;99.90
41344;DHT22;27089;50.022;7.604;2023-01-19T07:39:59;1.00;99.90
41344;DHT22;27089;50.022;7.604;2023-01-19T07:42:26;0.90;99.90
41344;DHT22;27089;50.022;7.604;2023-01-19T07:44:54;1.00;99.90
41344;DHT22;27089;50.022;7.604;2023-01-19T07:47:21;1.00;99.90
41344;DHT22;27089;50.022;7.604;2023-01-19T07:49:48;1.00;99.90
41344;DHT22;27089;50.022;7.604;2023-01-19T07:52:15;1.00;99.90
41344;DHT22;27089;50.022;7.604;2023-01-19T07:54:42;1.00;99.90
41344;DHT22;27089;50.022;7.604;2023-01-19T07:57:09;1.00;99.90
41344;DHT22;27089;50.022;7.604;2023-01-19T07:59:36;1.00;99.90
41344;DHT22;27089;50.022;7.604;2023-01-19T08:02:05;1.10;99.90
41344;DHT22;27089;50.022;7.604;2023-01-19T08:04:32;1.30;99.90
41344;DHT22;27089;50.022;7.604;2023-01-19T08:06:59;1.40;99.90
41344;DHT22;27089;50.022;7.604;2023-01-19T08:09:26;1.70;99.90
41344;DHT22;27089;50.022;7.604;2023-01-19T08:11:53;1.90;99.90
41344;DHT22;27089;50.022;7.604;2023-01-19T08:14:21;2.10;99.90
41344;DHT22;27089;50.022;7.604;2023-01-19T08:16:48;2.20;99.90
41344;DHT22;27089;50.022;7.604;2023-01-19T08:19:16;2.40;99.90
41344;DHT22;27089;50.022;7.604;2023-01-19T08:21:44;2.60;99.90
41344;DHT22;27089;50.022;7.604;2023-01-19T08:24:17;2.80;99.90
41344;DHT22;27089;50.022;7.604;2023-01-19T08:26:45;3.00;99.90
41344;DHT22;27089;50.022;7.604;2023-01-19T08:29:12;3.20;99.90
41344;DHT22;27089;50.022;7.604;2023-01-19T08:31:39;3.20;99.90
41344;DHT22;27089;50.022;7.604;2023-01-19T08:34:07;3.20;99.90
41344;DHT22;27089;50.022;7.604;2023-01-19T08:36:37;3.10;99.90
41344;DHT22;27089;50.022;7.604;2023-01-19T08:39:03;3.00;99.90
41344;DHT22;27089;50.022;7.604;2023-01-19T08:41:30;2.90;99.90
41344;DHT22;27089;50.022;7.604;2023-01-19T08:43:58;2.80;99.90
41344;DHT22;27089;50.022;7.604;2023-01-19T08:46:25;2.80;99.90
41344;DHT22;27089;50.022;7.604;2023-01-19T08:48:52;2.70;99.90
41344;DHT22;27089;50.022;7.604;2023-01-19T08:51:19;2.70;99.90
41344;DHT22;27089;50.022;7.604;2023-01-19T08:53:48;2.60;99.90
41344;DHT22;27089;50.022;7.604;2023-01-19T08:56:15;2.60;99.90
41344;DHT22;27089;50.022;7.604;2023-01-19T08:58:44;2.60;99.90
41344;DHT22;27089;50.022;7.604;2023-01-19T09:01:12;2.50;99.90
41344;DHT22;27089;50.022;7.604;2023-01-19T09:03:41;2.50;99.90
41344;DHT22;27089;50.022;7.604;2023-01-19T09:06:10;2.50;99.90
41344;DHT22;27089;50.022;7.604;2023-01-19T09:08:37;2.50;99.90
41344;DHT22;27089;50.022;7.604;2023-01-19T09:11:08;2.50;99.90
41344;DHT22;27089;50.022;7.604;2023-01-19T09:13:36;2.50;99.90
41344;DHT22;27089;50.022;7.604;2023-01-19T09:16:04;2.50;99.90
41344;DHT22;27089;50.022;7.604;2023-01-19T09:18:33;2.50;99.90
41344;DHT22;27089;50.022;7.604;2023-01-19T09:21:01;2.50;99.90
41344;DHT22;27089;50.022;7.604;2023-01-19T09:23:28;2.60;99.90
41344;DHT22;27089;50.022;7.604;2023-01-19T09:25:57;2.60;99.90
41344;DHT22;27089;50.022;7.604;2023-01-19T09:28:26;2.70;99.90
41344;DHT22;27089;50.022;7.604;2023-01-19T09:30:54;2.70;99.90
41344;DHT22;27089;50.022;7.604;2023-01-19T09:33:21;2.70;99.90
41344;DHT22;27089;50.022;7.604;2023-01-19T09:35:49;2.70;99.90
41344;DHT22;27089;50.022;7.604;2023-01-19T09:38:17;2.60;99.90
41344;DHT22;27089;50.022;7.604;2023-01-19T09:40:47;2.60;99.90
41344;DHT22;27089;50.022;7.604;2023-01-19T09:43:21;2.60;99.90
41344;DHT22;27089;50.022;7.604;2023-01-19T09:45:55;2.70;99.90
41344;DHT22;27089;50.022;7.604;2023-01-19T09:48:45;2.70;99.90
41344;DHT22;27089;50.022;7.604;2023-01-19T09:51:15;2.70;99.90
41344;DHT22;27089;50.022;7.604;2023-01-19T09:53:50;2.80;99.90
41344;DHT22;27089;50.022;7.604;2023-01-19T09:56:19;2.80;99.90
41344;DHT22;27089;50.022;7.604;2023-01-19T09:58:47;2.80;99.90
41344;DHT22;27089;50.022;7.604;2023-01-19T10:01:35;2.90;99.90
41344;DHT22;27089;50.022;7.604;2023-01-19T10:04:26;3.00;99.90
41344;DHT22;27089;50.022;7.604;2023-01-19T10:06:59;3.00;99.90
41344;DHT22;27089;50.022;7.604;2023-01-19T10:09:32;3.00;99.90
41344;DHT22;27089;50.022;7.604;2023-01-19T10:12:09;3.10;99.90
41344;DHT22;27089;50.022;7.604;2023-01-19T10:14:42;3.10;99.90
41344;DHT22;27089;50.022;7.604;2023-01-19T10:17:21;3.20;99.90
41344;DHT22;27089;50.022;7.604;2023-01-19T10:19:52;3.30;99.90
41344;DHT22;27089;50.022;7.604;2023-01-19T10:22:22;3.30;99.90
41344;DHT22;27089;50.022;7.604;2023-01-19T10:24:52;3.30;99.90
41344;DHT22;27089;50.022;7.604;2023-01-19T10:27:23;3.30;99.90
41344;DHT22;27089;50.022;7.604;2023-01-19T10:29:51;3.30;99.90
41344;DHT22;27089;50.022;7.604;2023-01-19T10:32:21;3.30;99.90
41344;DHT22;27089;50.022;7.604;2023-01-19T10:34:50;3.20;99.90
41344;DHT22;27089;50.022;7.604;2023-01-19T10:37:27;3.20;99.90
41344;DHT22;27089;50.022;7.604;2023-01-19T10:39:57;3.10;99.90
41344;DHT22;27089;50.022;7.604;2023-01-19T10:42:27;3.20;99.90
41344;DHT22;27089;50.022;7.604;2023-01-19T10:44:54;3.30;99.90
41344;DHT22;27089;50.022;7.604;2023-01-19T10:47:29;3.40;99.90
41344;DHT22;27089;50.022;7.604;2023-01-19T10:49:57;3.30;99.90
41344;DHT22;27089;50.022;7.604;2023-01-19T10:52:29;3.30;99.90
41344;DHT22;27089;50.022;7.604;2023-01-19T10:54:59;3.40;99.90
41344;DHT22;27089;50.022;7.604;2023-01-19T10:57:29;3.40;99.90
41344;DHT22;27089;50.022;7.604;2023-01-19T10:59:57;3.50;99.90
41344;DHT22;27089;50.022;7.604;2023-01-19T11:02:27;3.60;99.90
41344;DHT22;27089;50.022;7.604;2023-01-19T11:04:56;3.70;99.90
41344;DHT22;27089;50.022;7.604;2023-01-19T11:07:27;3.80;99.90
41344;DHT22;27089;50.022;7.604;2023-01-19T11:10:18;3.90;99.90
41344;DHT22;27089;50.022;7.604;2023-01-19T11:12:54;3.90;99.90
41344;DHT22;27089;50.022;7.604;2023-01-19T11:15:24;4.00;99.90
41344;DHT22;27089;50.022;7.604;2023-01-19T11:17:55;4.10;99.90
41344;DHT22;27089;50.022;7.604;2023-01-19T11:20:24;4.20;99.90
41344;DHT22;27089;50.022;7.604;2023-01-19T11:23:04;4.30;99.90
41344;DHT22;27089;50.022;7.604;2023-01-19T11:25:33;4.40;99.90
41344;DHT22;27089;50.022;7.604;2023-01-19T11:28:01;4.50;99.90
41344;DHT22;27089;50.022;7.604;2023-01-19T11:30:29;4.50;99.90
41344;DHT22;27089;50.022;7.604;2023-01-19T11:32:58;4.50;99.90
41344;DHT22;27089;50.022;7.604;2023-01-19T11:35:34;4.50;99.90
41344;DHT22;27089;50.022;7.604;2023-01-19T11:38:06;4.50;99.90
41344;DHT22;27089;50.022;7.604;2023-01-19T11:40:34;4.30;99.90
41344;DHT22;27089;50.022;7.604;2023-01-19T11:43:01;4.10;99.90
41344;DHT22;27089;50.022;7.604;2023-01-19T11:45:28;4.00;99.90
41344;DHT22;27089;50.022;7.604;2023-01-19T11:47:55;3.80;99.90
41344;DHT22;27089;50.022;7.604;2023-01-19T11:50:27;3.80;99.90
41344;DHT22;27089;50.022;7.604;2023-01-19T11:52:59;3.80;99.90
41344;DHT22;27089;50.022;7.604;2023-01-19T11:55:35;3.80;99.90
41344;DHT22;27089;50.022;7.604;2023-01-19T11:58:03;3.80;99.90
41344;DHT22;27089;50.022;7.604;2023-01-19T12:00:34;3.70;99.90
41344;DHT22;27089;50.022;7.604;2023-01-19T12:03:09;3.70;99.90
41344;DHT22;27089;50.022;7.604;2023-01-19T12:05:42;3.70;99.90
41344;DHT22;27089;50.022;7.604;2023-01-19T12:08:13;3.70;99.90
41344;DHT22;27089;50.022;7.604;2023-01-19T12:10:44;3.70;99.90
41344;DHT22;27089;50.022;7.604;2023-01-19T12:13:20;3.70;99.90
41344;DHT22;27089;50.022;7.604;2023-01-19T12:15:50;3.80;99.90
41344;DHT22;27089;50.022;7.604;2023-01-19T12:18:21;3.90;99.90
41344;DHT22;27089;50.022;7.604;2023-01-19T12:20:51;3.90;99.90
41344;DHT22;27089;50.022;7.604;2023-01-19T12:23:24;3.90;99.90
41344;DHT22;27089;50.022;7.604;2023-01-19T12:28:48;4.00;99.90
41344;DHT22;27089;50.022;7.604;2023-01-19T12:31:17;4.10;99.90
41344;DHT22;27089;50.022;7.604;2023-01-19T12:33:45;4.20;99.90
41344;DHT22;27089;50.022;7.604;2023-01-19T12:36:35;4.20;99.90
41344;DHT22;27089;50.022;7.604;2023-01-19T12:39:05;4.40;99.90
41344;DHT22;27089;50.022;7.604;2023-01-19T12:41:37;4.20;99.90
41344;DHT22;27089;50.022;7.604;2023-01-19T12:44:27;4.30;99.90
41344;DHT22;27089;50.022;7.604;2023-01-19T12:46:56;4.30;99.90
41344;DHT22;27089;50.022;7.604;2023-01-19T12:49:30;4.40;99.90
41344;DHT22;27089;50.022;7.604;2023-01-19T12:52:24;4.50;99.90
41344;DHT22;27089;50.022;7.604;2023-01-19T12:55:18;4.60;99.90
41344;DHT22;27089;50.022;7.604;2023-01-19T12:57:52;4.60;99.90
41344;DHT22;27089;50.022;7.604;2023-01-19T13:00:32;4.70;99.90
41344;DHT22;27089;50.022;7.604;2023-01-19T13:03:00;4.70;99.90
41344;DHT22;27089;50.022;7.604;2023-01-19T13:05:58;4.80;99.90
41344;DHT22;27089;50.022;7.604;2023-01-19T13:08:28;4.80;99.90
41344;DHT22;27089;50.022;7.604;2023-01-19T13:11:17;5.00;99.90
41344;DHT22;27089;50.022;7.604;2023-01-19T13:25:53;5.10;99.90
41344;DHT22;27089;50.022;7.604;2023-01-19T13:28:30;5.10;99.90
41344;DHT22;27089;50.022;7.604;2023-01-19T13:30:59;5.00;99.90
41344;DHT22;27089;50.022;7.604;2023-01-19T13:33:29;4.90;99.90
41344;DHT22;27089;50.022;7.604;2023-01-19T13:35:58;4.90;99.90
41344;DHT22;27089;50.022;7.604;2023-01-19T13:38:26;4.80;99.90
41344;DHT22;27089;50.022;7.604;2023-01-19T13:41:00;4.70;99.90
41344;DHT22;27089;50.022;7.604;2023-01-19T13:43:33;4.60;99.90
41344;DHT22;27089;50.022;7.604;2023-01-19T13:46:03;4.40;99.90
41344;DHT22;27089;50.022;7.604;2023-01-19T13:48:30;4.40;99.90
41344;DHT22;27089;50.022;7.604;2023-01-19T13:51:01;4.30;99.90
41344;DHT22;27089;50.022;7.604;2023-01-19T13:53:29;4.20;99.90
41344;DHT22;27089;50.022;7.604;2023-01-19T13:56:15;4.20;99.90
41344;DHT22;27089;50.022;7.604;2023-01-19T13:58:57;4.20;99.90
41344;DHT22;27089;50.022;7.604;2023-01-19T14:01:26;4.30;99.90
41344;DHT22;27089;50.022;7.604;2023-01-19T14:03:53;4.30;99.90
41344;DHT22;27089;50.022;7.604;2023-01-19T14:06:22;4.30;99.90
41344;DHT22;27089;50.022;7.604;2023-01-19T14:09:04;4.30;99.90
41344;DHT22;27089;50.022;7.604;2023-01-19T14:11:32;4.30;99.90
41344;DHT22;27089;50.022;7.604;2023-01-19T14:13:59;4.40;99.90
41344;DHT22;27089;50.022;7.604;2023-01-19T14:16:27;4.60;99.90
41344;DHT22;27089;50.022;7.604;2023-01-19T14:19:03;4.60;99.90
41344;DHT22;27089;50.022;7.604;2023-01-19T14:21:37;4.70;99.90
41344;DHT22;27089;50.022;7.604;2023-01-19T14:24:07;4.60;99.90
41344;DHT22;27089;50.022;7.604;2023-01-19T14:26:46;4.60;99.90
41344;DHT22;27089;50.022;7.604;2023-01-19T14:29:26;4.50;99.90
41344;DHT22;27089;50.022;7.604;2023-01-19T14:32:05;4.50;99.90
41344;DHT22;27089;50.022;7.604;2023-01-19T14:34:34;4.50;99.90
41344;DHT22;27089;50.022;7.604;2023-01-19T14:37:10;4.40;99.90
41344;DHT22;27089;50.022;7.604;2023-01-19T14:39:43;4.30;99.90
41344;DHT22;27089;50.022;7.604;2023-01-19T14:42:15;4.30;99.90
41344;DHT22;27089;50.022;7.604;2023-01-19T14:44:45;4.30;99.90
41344;DHT22;27089;50.022;7.604;2023-01-19T14:47:24;4.20;99.90
41344;DHT22;27089;50.022;7.604;2023-01-19T14:49:52;4.30;99.90
41344;DHT22;27089;50.022;7.604;2023-01-19T14:52:24;4.20;99.90
41344;DHT22;27089;50.022;7.604;2023-01-19T14:54:52;4.10;99.90
41344;DHT22;27089;50.022;7.604;2023-01-19T14:57:21;4.00;99.90
41344;DHT22;27089;50.022;7.604;2023-01-19T14:59:48;3.90;99.90
41344;DHT22;27089;50.022;7.604;2023-01-19T15:02:15;3.90;99.90
41344;DHT22;27089;50.022;7.604;2023-01-19T15:04:44;3.80;99.90
41344;DHT22;27089;50.022;7.604;2023-01-19T15:07:21;3.90;99.90
41344;DHT22;27089;50.022;7.604;2023-01-19T15:09:49;3.80;99.90
41344;DHT22;27089;50.022;7.604;2023-01-19T15:12:17;3.80;99.90
41344;DHT22;27089;50.022;7.604;2023-01-19T15:14:46;3.70;99.90
41344;DHT22;27089;50.022;7.604;2023-01-19T15:17:17;3.70;99.90
41344;DHT22;27089;50.022;7.604;2023-01-19T15:19:50;3.60;99.90
41344;DHT22;27089;50.022;7.604;2023-01-19T15:22:17;3.50;99.90
41344;DHT22;27089;50.022;7.604;2023-01-19T15:24:48;3.50;99.90
41344;DHT22;27089;50.022;7.604;2023-01-19T15:27:15;3.50;99.90
41344;DHT22;27089;50.022;7.604;2023-01-19T15:29:42;3.60;99.90
41344;DHT22;27089;50.022;7.604;2023-01-19T15:32:13;3.50;99.90
41344;DHT22;27089;50.022;7.604;2023-01-19T15:34:41;3.40;99.90
41344;DHT22;27089;50.022;7.604;2023-01-19T15:37:08;3.40;99.90
41344;DHT22;27089;50.022;7.604;2023-01-19T15:39:37;3.30;99.90
41344;DHT22;27089;50.022;7.604;2023-01-19T15:42:09;3.30;99.90
41344;DHT22;27089;50.022;7.604;2023-01-19T15:44:36;3.20;99.90
41344;DHT22;27089;50.022;7.604;2023-01-19T15:47:03;3.10;99.90
41344;DHT22;27089;50.022;7.604;2023-01-19T15:49:32;2.90;99.90
41344;DHT22;27089;50.022;7.604;2023-01-19T15:51:59;2.80;99.90
41344;DHT22;27089;50.022;7.604;2023-01-19T15:54:26;2.60;99.90
41344;DHT22;27089;50.022;7.604;2023-01-19T15:56:53;2.50;99.90
41344;DHT22;27089;50.022;7.604;2023-01-19T15:59:20;2.30;99.90
41344;DHT22;27089;50.022;7.604;2023-01-19T16:01:48;2.20;99.90
41344;DHT22;27089;50.022;7.604;2023-01-19T16:04:15;2.20;99.90
41344;DHT22;27089;50.022;7.604;2023-01-19T16:06:43;2.00;99.90
41344;DHT22;27089;50.022;7.604;2023-01-19T16:09:10;1.90;99.90
41344;DHT22;27089;50.022;7.604;2023-01-19T16:11:43;1.90;99.90
41344;DHT22;27089;50.022;7.604;2023-01-19T16:14:10;1.80;99.90
41344;DHT22;27089;50.022;7.604;2023-01-19T16:16:37;1.70;99.90